createdAt,value
2019-02-25T00:00:46.201Z,4.36
2019-02-25T00:03:14.013Z,4.23
2019-02-25T00:05:41.752Z,4.12
2019-02-25T00:08:09.555Z,4.13
2019-02-25T00:10:37.314Z,4.17
2019-02-25T00:13:05.076Z,4.16
2019-02-25T00:15:32.804Z,4.12
2019-02-25T00:18:00.768Z,4.26
2019-02-25T00:20:28.516Z,4.28
2019-02-25T00:22:56.296Z,4.22
2019-02-25T00:25:24.017Z,4.26
2019-02-25T00:27:51.955Z,4.28
2019-02-25T00:30:19.695Z,4.30
2019-02-25T00:32:47.934Z,4.23
2019-02-25T00:35:15.658Z,4.21
2019-02-25T00:37:43.435Z,4.22
2019-02-25T00:40:11.454Z,4.31
2019-02-25T00:42:39.417Z,4.31
2019-02-25T00:45:07.537Z,4.30
2019-02-25T00:47:35.443Z,4.26
2019-02-25T00:50:03.867Z,4.20
2019-02-25T00:52:31.785Z,4.25
2019-02-25T00:54:59.533Z,4.29
2019-02-25T00:57:27.309Z,4.25
2019-02-25T00:59:55.036Z,4.00
2019-02-25T01:02:22.995Z,4.07
2019-02-25T01:04:50.734Z,4.14
2019-02-25T01:07:18.680Z,4.17
2019-02-25T01:09:46.411Z,4.16
2019-02-25T01:12:14.360Z,4.11
2019-02-25T01:14:42.301Z,4.07
2019-02-25T01:17:10.068Z,4.03
2019-02-25T01:19:37.983Z,4.02
2019-02-25T01:22:05.753Z,3.96
2019-02-25T01:24:33.770Z,3.94
2019-02-25T01:27:01.526Z,3.86
2019-02-25T01:29:29.454Z,3.88
2019-02-25T01:31:57.353Z,3.93
2019-02-25T01:34:25.092Z,3.92
2019-02-25T01:36:52.868Z,3.92
2019-02-25T01:39:20.767Z,3.90
2019-02-25T01:41:48.518Z,3.89
2019-02-25T01:44:16.438Z,3.81
2019-02-25T01:46:44.204Z,3.83
2019-02-25T01:49:11.962Z,3.84
2019-02-25T01:51:39.710Z,3.80
2019-02-25T01:54:07.498Z,3.81
2019-02-25T01:56:35.228Z,3.84
2019-02-25T01:59:02.986Z,3.81
2019-02-25T02:01:30.716Z,3.75
2019-02-25T02:03:58.645Z,3.67
2019-02-25T02:06:26.367Z,3.68
2019-02-25T02:08:54.332Z,3.72
2019-02-25T02:11:22.084Z,3.79
2019-02-25T02:13:50.015Z,3.78
2019-02-25T02:16:17.753Z,3.78
2019-02-25T02:18:45.722Z,3.70
2019-02-25T02:21:13.487Z,3.65
2019-02-25T02:23:41.225Z,3.66
2019-02-25T02:26:09.511Z,3.65
2019-02-25T02:28:37.267Z,3.67
2019-02-25T02:31:05.118Z,3.68
2019-02-25T02:33:33.019Z,3.68
2019-02-25T02:36:00.802Z,3.61
2019-02-25T02:38:28.578Z,3.61
2019-02-25T02:40:56.498Z,3.56
2019-02-25T02:43:24.272Z,3.56
2019-02-25T02:46:08.780Z,3.55
2019-02-25T02:48:51.970Z,3.42
2019-02-25T02:51:19.701Z,3.43
2019-02-25T02:53:47.461Z,3.45
2019-02-25T02:56:15.347Z,3.39
2019-02-25T02:58:43.102Z,3.42
2019-02-25T03:01:10.851Z,3.39
2019-02-25T03:03:38.803Z,3.32
2019-02-25T03:06:06.539Z,3.30
2019-02-25T03:08:34.486Z,3.31
2019-02-25T03:11:02.213Z,3.33
2019-02-25T03:13:30.142Z,3.30
2019-02-25T03:15:58.079Z,3.29
2019-02-25T03:18:25.848Z,3.29
2019-02-25T03:20:53.625Z,3.23
2019-02-25T03:23:21.371Z,3.29
2019-02-25T03:25:49.112Z,3.29
2019-02-25T03:28:16.856Z,3.26
2019-02-25T03:30:44.764Z,3.26
2019-02-25T03:33:12.507Z,3.07
2019-02-25T03:35:40.262Z,3.17
2019-02-25T03:38:08.038Z,3.16
2019-02-25T03:40:35.891Z,3.15
2019-02-25T03:43:03.632Z,3.14
2019-02-25T03:45:31.408Z,3.15
2019-02-25T03:47:59.198Z,3.16
2019-02-25T03:50:26.989Z,3.13
2019-02-25T03:52:54.748Z,3.22
2019-02-25T03:55:23.104Z,3.18
2019-02-25T03:57:50.812Z,3.17
2019-02-25T04:00:20.709Z,3.13
2019-02-25T04:02:48.530Z,3.12
2019-02-25T04:05:16.332Z,3.14
2019-02-25T04:07:44.157Z,3.15
2019-02-25T04:10:12.234Z,3.17
2019-02-25T04:12:40.003Z,3.13
2019-02-25T04:15:11.487Z,3.16
2019-02-25T04:17:39.220Z,3.08
2019-02-25T04:20:10.439Z,3.03
2019-02-25T04:22:38.196Z,3.07
2019-02-25T04:25:06.122Z,3.11
2019-02-25T04:27:34.067Z,3.05
2019-02-25T04:30:01.973Z,3.06
2019-02-25T04:32:29.829Z,3.02
2019-02-25T04:34:57.737Z,2.94
2019-02-25T04:37:25.482Z,2.98
2019-02-25T04:39:53.237Z,2.99
2019-02-25T04:42:21.157Z,2.94
2019-02-25T04:44:51.263Z,2.94
2019-02-25T04:47:18.756Z,2.85
2019-02-25T04:49:46.664Z,2.90
2019-02-25T04:52:14.883Z,2.89
2019-02-25T04:54:42.667Z,2.88
2019-02-25T04:57:10.565Z,2.92
2019-02-25T04:59:38.301Z,2.82
2019-02-25T05:02:11.575Z,2.77
2019-02-25T05:04:39.342Z,2.82
2019-02-25T05:07:07.255Z,2.77
2019-02-25T05:09:35.025Z,2.82
2019-02-25T05:12:02.790Z,2.89
2019-02-25T05:14:30.566Z,2.88
2019-02-25T05:16:58.324Z,2.91
2019-02-25T05:19:26.094Z,2.88
2019-02-25T05:21:53.923Z,2.86
2019-02-25T05:24:21.718Z,2.86
2019-02-25T05:26:49.625Z,2.86
2019-02-25T05:29:17.418Z,2.84
2019-02-25T05:31:45.372Z,2.81
2019-02-25T05:34:13.405Z,2.84
2019-02-25T05:36:42.216Z,2.73
2019-02-25T05:39:09.942Z,2.78
2019-02-25T05:41:37.736Z,2.77
2019-02-25T05:44:05.505Z,2.76
2019-02-25T05:46:33.276Z,2.82
2019-02-25T05:49:01.058Z,2.81
2019-02-25T05:51:28.870Z,2.78
2019-02-25T05:53:56.637Z,2.78
2019-02-25T05:56:24.579Z,2.76
2019-02-25T05:58:52.297Z,2.72
2019-02-25T06:01:20.062Z,2.80
2019-02-25T06:03:47.844Z,2.88
2019-02-25T06:06:15.880Z,2.75
2019-02-25T06:08:43.635Z,2.70
2019-02-25T06:11:11.366Z,2.76
2019-02-25T06:13:39.161Z,2.69
2019-02-25T06:16:06.913Z,2.76
2019-02-25T06:18:34.691Z,2.83
2019-02-25T06:21:02.449Z,2.86
2019-02-25T06:23:30.231Z,2.93
2019-02-25T06:25:58.060Z,3.00
2019-02-25T06:28:26.019Z,3.00
2019-02-25T06:30:53.783Z,3.02
2019-02-25T06:33:21.558Z,3.09
2019-02-25T06:35:49.327Z,3.18
2019-02-25T06:38:17.118Z,3.17
2019-02-25T06:40:44.853Z,3.17
2019-02-25T06:43:12.610Z,3.28
2019-02-25T06:45:40.411Z,3.30
2019-02-25T06:48:08.191Z,3.37
2019-02-25T06:50:36.009Z,3.43
2019-02-25T06:53:03.908Z,3.47
2019-02-25T06:55:31.661Z,3.51
2019-02-25T06:57:59.561Z,3.60
2019-02-25T07:00:27.338Z,3.64
2019-02-25T07:02:55.071Z,3.74
2019-02-25T07:05:42.318Z,3.66
2019-02-25T07:08:16.213Z,3.60
2019-02-25T07:10:51.187Z,3.68
2019-02-25T07:13:36.804Z,3.72
2019-02-25T07:16:27.206Z,3.74
2019-02-25T07:19:11.739Z,3.96
2019-02-25T07:22:14.058Z,4.15
2019-02-25T07:25:01.422Z,4.14
2019-02-25T07:27:36.942Z,4.20
2019-02-25T07:30:29.797Z,4.26
2019-02-25T07:33:19.020Z,4.29
2019-02-25T07:35:59.704Z,4.43
2019-02-25T07:38:39.660Z,4.52
2019-02-25T07:41:24.337Z,4.58
2019-02-25T07:44:10.544Z,4.56
2019-02-25T07:46:54.142Z,4.51
2019-02-25T07:49:39.653Z,4.73
2019-02-25T07:52:25.221Z,4.88
2019-02-25T07:55:21.677Z,4.90
2019-02-25T07:58:05.796Z,4.90
2019-02-25T08:00:51.959Z,4.95
2019-02-25T08:03:42.453Z,5.06
2019-02-25T08:06:32.922Z,5.25
2019-02-25T08:09:09.295Z,5.35
2019-02-25T08:11:56.655Z,5.50
2019-02-25T08:14:39.036Z,5.58
2019-02-25T08:17:26.392Z,5.58
2019-02-25T08:20:28.600Z,5.59
2019-02-25T08:23:21.751Z,5.78
2019-02-25T08:26:24.037Z,5.90
2019-02-25T08:29:11.153Z,6.25
2019-02-25T08:31:54.285Z,6.29
2019-02-25T08:34:35.335Z,6.41
2019-02-25T08:37:51.375Z,6.64
2019-02-25T08:40:54.989Z,6.78
2019-02-25T08:43:29.793Z,6.85
2019-02-25T08:46:23.179Z,6.93
2019-02-25T08:48:54.543Z,6.99
2019-02-25T08:51:22.322Z,7.08
2019-02-25T08:53:50.282Z,7.09
2019-02-25T08:56:18.241Z,7.20
2019-02-25T08:58:46.034Z,7.27
2019-02-25T09:01:15.446Z,7.21
2019-02-25T09:03:43.457Z,7.17
2019-02-25T09:06:11.353Z,7.29
2019-02-25T09:08:39.216Z,7.30
2019-02-25T09:11:13.935Z,7.32
2019-02-25T09:13:36.702Z,7.34
2019-02-25T09:16:04.494Z,7.55
2019-02-25T09:18:32.276Z,7.64
2019-02-25T09:21:00.024Z,7.77
2019-02-25T09:23:27.834Z,7.80
2019-02-25T09:25:55.563Z,7.90
2019-02-25T09:28:23.334Z,8.04
2019-02-25T09:30:51.045Z,8.19
2019-02-25T09:33:18.835Z,8.40
2019-02-25T09:35:46.605Z,8.38
2019-02-25T09:38:14.396Z,8.66
2019-02-25T09:40:42.156Z,8.90
2019-02-25T09:43:09.946Z,9.14
2019-02-25T09:45:37.744Z,9.35
2019-02-25T09:48:05.550Z,9.52
2019-02-25T09:50:33.315Z,9.95
2019-02-25T09:53:01.091Z,10.30
2019-02-25T09:55:28.870Z,11.48
2019-02-25T09:57:56.663Z,12.83
2019-02-25T10:00:24.427Z,12.98
2019-02-25T10:02:52.234Z,13.15
2019-02-25T10:05:20.006Z,13.74
2019-02-25T10:07:47.829Z,13.86
2019-02-25T10:10:15.718Z,13.78
2019-02-25T10:12:43.582Z,13.73
2019-02-25T10:15:12.747Z,15.18
2019-02-25T10:17:40.497Z,15.82
2019-02-25T10:20:08.533Z,17.20
2019-02-25T10:22:36.357Z,20.15
2019-02-25T10:25:04.389Z,21.09
2019-02-25T10:27:32.206Z,22.67
2019-02-25T10:29:59.993Z,22.90
2019-02-25T10:32:29.784Z,21.20
2019-02-25T10:34:57.489Z,20.21
2019-02-25T10:37:25.306Z,18.99
2019-02-25T10:39:54.879Z,17.84
2019-02-25T10:42:22.672Z,17.05
2019-02-25T10:44:50.446Z,16.59
2019-02-25T10:47:19.856Z,16.32
2019-02-25T10:49:47.949Z,16.40
2019-02-25T10:52:17.348Z,15.93
2019-02-25T10:54:45.355Z,16.56
2019-02-25T10:57:19.401Z,17.49
2019-02-25T10:59:47.801Z,18.71
2019-02-25T11:02:17.389Z,20.72
2019-02-25T11:04:45.275Z,22.28
2019-02-25T11:07:13.022Z,22.29
2019-02-25T11:09:52.211Z,20.86
2019-02-25T11:12:21.601Z,19.14
2019-02-25T11:14:49.787Z,18.37
2019-02-25T11:17:18.316Z,17.71
2019-02-25T11:19:47.204Z,17.00
2019-02-25T11:22:16.359Z,15.63
2019-02-25T11:24:44.255Z,16.52
2019-02-25T11:27:12.044Z,19.88
2019-02-25T11:29:40.511Z,23.40
2019-02-25T11:32:09.668Z,26.33
2019-02-25T11:34:37.794Z,29.85
2019-02-25T11:37:07.245Z,31.42
2019-02-25T11:39:37.263Z,31.61
2019-02-25T11:42:07.831Z,32.58
2019-02-25T11:44:38.476Z,33.23
2019-02-25T11:47:06.278Z,33.30
2019-02-25T11:49:34.036Z,31.96
2019-02-25T11:52:01.934Z,31.53
2019-02-25T11:54:29.788Z,31.30
2019-02-25T11:56:57.820Z,32.38
2019-02-25T11:59:25.623Z,32.82
2019-02-25T12:01:53.455Z,34.50
2019-02-25T12:04:21.222Z,33.89
2019-02-25T12:06:48.999Z,33.11
2019-02-25T12:09:16.758Z,34.29
2019-02-25T12:11:44.750Z,36.21
2019-02-25T12:14:12.611Z,37.00
2019-02-25T12:16:40.687Z,38.81
2019-02-25T12:19:17.596Z,37.66
2019-02-25T12:21:38.119Z,38.46
2019-02-25T12:24:05.951Z,36.06
2019-02-25T12:26:33.711Z,33.88
2019-02-25T12:29:08.493Z,32.64
2019-02-25T12:31:31.236Z,33.00
2019-02-25T12:33:59.009Z,32.09
2019-02-25T12:36:26.789Z,32.06
2019-02-25T12:38:54.599Z,31.59
2019-02-25T12:41:22.377Z,33.27
2019-02-25T12:43:50.217Z,33.56
2019-02-25T12:46:17.955Z,35.93
2019-02-25T12:48:45.712Z,35.39
2019-02-25T12:51:13.485Z,35.67
2019-02-25T12:53:41.265Z,33.41
2019-02-25T12:56:09.013Z,33.19
2019-02-25T12:58:36.850Z,33.64
2019-02-25T13:01:04.687Z,34.04
2019-02-25T13:03:32.463Z,34.91
2019-02-25T13:06:01.588Z,34.80
2019-02-25T13:08:29.548Z,35.32
2019-02-25T13:10:57.443Z,35.69
2019-02-25T13:13:25.204Z,35.94
2019-02-25T13:15:52.989Z,35.63
2019-02-25T13:18:20.769Z,36.40
2019-02-25T13:20:48.543Z,35.15
2019-02-25T13:23:17.546Z,34.95
2019-02-25T13:25:45.640Z,34.27
2019-02-25T13:28:13.402Z,35.37
2019-02-25T13:30:41.200Z,35.65
2019-02-25T13:33:08.975Z,38.02
2019-02-25T13:35:37.007Z,39.22
2019-02-25T13:38:06.843Z,39.46
2019-02-25T13:40:34.855Z,38.30
2019-02-25T13:43:02.632Z,39.43
2019-02-25T13:45:30.480Z,38.61
2019-02-25T13:47:58.230Z,39.13
2019-02-25T13:50:26.125Z,38.96
2019-02-25T13:52:53.966Z,35.96
2019-02-25T13:55:21.905Z,36.71
2019-02-25T13:57:49.817Z,37.19
2019-02-25T14:00:18.564Z,37.20
2019-02-25T14:02:46.600Z,35.39
2019-02-25T14:05:14.662Z,36.16
2019-02-25T14:07:42.584Z,37.46
2019-02-25T14:10:11.028Z,36.88
2019-02-25T14:12:38.803Z,36.65
2019-02-25T14:15:07.303Z,36.26
2019-02-25T14:17:35.348Z,37.03
2019-02-25T14:20:08.031Z,36.98
2019-02-25T14:22:35.793Z,36.62
2019-02-25T14:25:03.975Z,37.11
2019-02-25T14:27:31.776Z,36.92
2019-02-25T14:29:59.647Z,34.86
2019-02-25T14:32:29.838Z,33.97
2019-02-25T14:34:57.615Z,34.90
2019-02-25T14:37:25.603Z,35.55
2019-02-25T14:39:54.318Z,34.75
2019-02-25T14:42:26.063Z,33.95
2019-02-25T14:44:54.490Z,34.19
2019-02-25T14:47:31.133Z,32.86
2019-02-25T14:49:53.564Z,32.25
2019-02-25T14:52:21.834Z,32.96
2019-02-25T14:54:51.008Z,33.21
2019-02-25T14:57:20.416Z,33.51
2019-02-25T14:59:48.388Z,31.93
2019-02-25T15:02:16.506Z,31.53
2019-02-25T15:04:44.496Z,31.03
2019-02-25T15:07:15.109Z,30.84
2019-02-25T15:09:43.579Z,29.55
2019-02-25T15:12:12.714Z,29.09
2019-02-25T15:14:40.504Z,28.52
2019-02-25T15:17:10.446Z,28.54
2019-02-25T15:19:39.044Z,28.22
2019-02-25T15:22:08.044Z,27.26
2019-02-25T15:24:35.886Z,26.19
2019-02-25T15:27:04.485Z,25.53
2019-02-25T15:29:34.425Z,24.88
2019-02-25T15:32:02.955Z,24.16
2019-02-25T15:34:30.748Z,23.07
2019-02-25T15:37:00.606Z,22.12
2019-02-25T15:39:28.164Z,21.18
2019-02-25T15:41:55.914Z,20.30
2019-02-25T15:44:23.895Z,19.38
2019-02-25T15:46:51.954Z,18.86
2019-02-25T15:49:21.368Z,17.85
2019-02-25T15:51:49.575Z,17.67
2019-02-25T15:54:17.337Z,17.31
2019-02-25T15:56:45.104Z,16.83
2019-02-25T15:59:12.869Z,16.38
2019-02-25T16:01:40.963Z,16.06
2019-02-25T16:04:09.308Z,15.58
2019-02-25T16:06:39.818Z,15.56
2019-02-25T16:09:08.783Z,15.31
2019-02-25T16:11:38.831Z,15.03
2019-02-25T16:14:07.026Z,14.73
2019-02-25T16:16:35.176Z,14.43
2019-02-25T16:19:05.647Z,14.24
2019-02-25T16:21:32.990Z,14.24
2019-02-25T16:24:04.026Z,14.17
2019-02-25T16:26:32.125Z,14.08
2019-02-25T16:29:04.156Z,13.98
2019-02-25T16:31:31.497Z,13.85
2019-02-25T16:34:00.139Z,13.74
2019-02-25T16:36:28.940Z,13.60
2019-02-25T16:38:58.610Z,13.50
2019-02-25T16:41:30.086Z,13.37
2019-02-25T16:44:57.548Z,13.23
2019-02-25T16:47:34.639Z,13.03
2019-02-25T16:50:30.191Z,12.87
2019-02-25T16:52:58.178Z,12.74
2019-02-25T16:55:27.743Z,12.35
2019-02-25T16:57:55.700Z,12.35
2019-02-25T17:00:27.413Z,12.33
2019-02-25T17:02:54.684Z,12.21
2019-02-25T17:05:23.052Z,12.14
2019-02-25T17:07:51.105Z,12.04
2019-02-25T17:10:19.459Z,11.93
2019-02-25T17:12:50.095Z,11.80
2019-02-25T17:15:18.899Z,11.72
2019-02-25T17:17:46.638Z,11.66
2019-02-25T17:20:14.840Z,11.60
2019-02-25T17:22:42.914Z,11.52
2019-02-25T17:25:12.170Z,11.41
2019-02-25T17:27:40.513Z,11.36
2019-02-25T17:30:14.757Z,11.30
2019-02-25T17:32:44.075Z,11.24
2019-02-25T17:35:13.032Z,11.12
2019-02-25T17:37:40.769Z,11.02
2019-02-25T17:40:11.357Z,11.01
2019-02-25T17:42:40.503Z,10.97
2019-02-25T17:45:12.333Z,10.92
2019-02-25T17:47:41.471Z,10.86
2019-02-25T17:50:10.854Z,10.79
2019-02-25T17:52:40.285Z,10.76
2019-02-25T17:55:12.818Z,10.77
2019-02-25T17:57:40.726Z,10.73
2019-02-25T18:00:19.803Z,10.63
2019-02-25T18:02:47.668Z,10.56
2019-02-25T18:05:16.917Z,10.55
2019-02-25T18:07:46.531Z,10.56
2019-02-25T18:10:14.932Z,10.53
2019-02-25T18:12:42.810Z,10.43
2019-02-25T18:15:16.265Z,10.28
2019-02-25T18:17:44.885Z,10.18
2019-02-25T18:20:14.576Z,10.03
2019-02-25T18:22:42.358Z,9.96
2019-02-25T18:25:10.859Z,9.72
2019-02-25T18:27:39.229Z,9.71
2019-02-25T18:30:09.277Z,9.73
2019-02-25T18:32:38.689Z,9.63
2019-02-25T18:35:07.447Z,9.57
2019-02-25T18:37:37.552Z,9.57
2019-02-25T18:40:06.849Z,9.51
2019-02-25T18:42:36.480Z,9.44
2019-02-25T18:45:08.344Z,9.36
2019-02-25T18:47:36.642Z,9.42
2019-02-25T18:50:07.256Z,9.41
2019-02-25T18:52:36.798Z,9.32
2019-02-25T18:55:06.729Z,9.30
2019-02-25T18:57:35.464Z,9.24
2019-02-25T19:00:06.272Z,9.27
2019-02-25T19:02:35.567Z,9.21
2019-02-25T19:05:06.162Z,9.17
2019-02-25T19:07:34.059Z,9.11
2019-02-25T19:10:01.824Z,9.04
2019-02-25T19:12:30.276Z,9.01
2019-02-25T19:15:00.002Z,8.93
2019-02-25T19:17:29.374Z,8.87
2019-02-25T19:19:58.419Z,8.81
2019-02-25T19:22:27.411Z,8.79
2019-02-25T19:24:55.207Z,8.72
2019-02-25T19:27:23.003Z,8.67
2019-02-25T19:29:53.353Z,8.72
2019-02-25T19:32:23.041Z,8.51
2019-02-25T19:34:51.911Z,8.49
2019-02-25T19:37:20.697Z,8.52
2019-02-25T19:39:50.428Z,8.50
2019-02-25T19:42:20.840Z,8.57
2019-02-25T19:44:48.188Z,8.53
2019-02-25T19:47:17.286Z,8.46
2019-02-25T19:49:46.078Z,8.41
2019-02-25T19:52:16.237Z,8.30
2019-02-25T19:54:45.677Z,8.35
2019-02-25T19:57:14.063Z,8.30
2019-02-25T19:59:45.921Z,8.27
2019-02-25T20:02:13.019Z,8.15
2019-02-25T20:04:42.296Z,8.15
2019-02-25T20:07:10.556Z,8.14
2019-02-25T20:09:40.283Z,8.12
2019-02-25T20:12:08.042Z,8.11
2019-02-25T20:14:35.803Z,8.00
2019-02-25T20:17:03.690Z,7.89
2019-02-25T20:19:31.482Z,7.82
2019-02-25T20:21:59.499Z,7.83
2019-02-25T20:24:27.290Z,7.85
2019-02-25T20:26:58.491Z,7.79
2019-02-25T20:29:25.873Z,7.73
2019-02-25T20:31:54.575Z,7.66
2019-02-25T20:34:25.142Z,7.57
2019-02-25T20:36:55.436Z,7.56
2019-02-25T20:39:22.891Z,7.59
2019-02-25T20:41:52.269Z,7.62
2019-02-25T20:44:22.272Z,7.60
2019-02-25T20:46:52.642Z,7.55
2019-02-25T20:49:20.894Z,7.48
2019-02-25T20:51:50.523Z,7.42
2019-02-25T20:54:20.945Z,7.38
2019-02-25T20:56:51.119Z,7.37
2019-02-25T20:59:20.962Z,7.35
2019-02-25T21:01:50.567Z,7.33
2019-02-25T21:04:20.101Z,7.30
2019-02-25T21:06:48.076Z,7.31
2019-02-25T21:09:15.915Z,7.29
2019-02-25T21:11:44.055Z,7.29
2019-02-25T21:14:11.831Z,7.23
2019-02-25T21:16:39.592Z,7.20
2019-02-25T21:19:08.133Z,7.17
2019-02-25T21:21:38.887Z,7.15
2019-02-25T21:24:08.929Z,7.14
2019-02-25T21:26:38.620Z,7.15
2019-02-25T21:29:07.062Z,7.17
2019-02-25T21:31:35.898Z,7.14
2019-02-25T21:34:04.508Z,7.15
2019-02-25T21:36:33.884Z,7.14
2019-02-25T21:39:03.467Z,7.17
2019-02-25T21:41:31.243Z,7.18
2019-02-25T21:43:59.287Z,7.16
2019-02-25T21:46:29.094Z,7.11
2019-02-25T21:48:57.543Z,7.05
2019-02-25T21:51:28.099Z,6.99
2019-02-25T21:53:58.090Z,6.90
2019-02-25T21:56:26.997Z,6.87
2019-02-25T21:58:54.910Z,6.89
2019-02-25T22:01:22.705Z,6.93
2019-02-25T22:03:52.428Z,7.00
2019-02-25T22:06:22.093Z,7.00
2019-02-25T22:08:52.094Z,6.93
2019-02-25T22:11:21.582Z,6.91
2019-02-25T22:13:49.182Z,6.77
2019-02-25T22:16:16.940Z,6.79
2019-02-25T22:18:44.780Z,6.72
2019-02-25T22:21:14.189Z,6.78
2019-02-25T22:23:42.446Z,6.86
2019-02-25T22:26:10.216Z,6.85
2019-02-25T22:28:39.413Z,6.88
2019-02-25T22:31:10.333Z,6.83
2019-02-25T22:33:37.033Z,6.83
2019-02-25T22:36:05.058Z,6.77
2019-02-25T22:38:32.810Z,6.78
2019-02-25T22:41:02.299Z,6.79
2019-02-25T22:43:30.177Z,6.79
2019-02-25T22:45:59.898Z,6.78
2019-02-25T22:48:27.641Z,6.57
2019-02-25T22:50:57.673Z,6.51
2019-02-25T22:53:25.232Z,6.53
2019-02-25T22:55:54.701Z,6.49
2019-02-25T22:58:22.573Z,6.53
2019-02-25T23:00:51.494Z,6.59
2019-02-25T23:03:22.574Z,6.51
2019-02-25T23:05:50.876Z,6.42
2019-02-25T23:08:20.968Z,6.48
2019-02-25T23:10:49.818Z,6.45
2019-02-25T23:13:20.059Z,6.44
2019-02-25T23:15:49.438Z,6.30
2019-02-25T23:18:21.526Z,6.24
2019-02-25T23:20:47.748Z,6.24
2019-02-25T23:23:15.473Z,6.12
2019-02-25T23:25:43.261Z,6.02
2019-02-25T23:28:11.015Z,6.03
2019-02-25T23:30:39.637Z,5.79
2019-02-25T23:33:09.717Z,5.67
2019-02-25T23:35:40.755Z,5.73
2019-02-25T23:38:06.861Z,5.79
2019-02-25T23:40:37.402Z,5.82
2019-02-25T23:43:07.105Z,5.85
2019-02-25T23:45:35.615Z,5.75
2019-02-25T23:48:06.260Z,5.67
2019-02-25T23:50:36.056Z,5.71
2019-02-25T23:53:03.906Z,5.75
2019-02-25T23:55:31.669Z,5.68
2019-02-25T23:57:59.420Z,5.64
